sensor_id;sensor_type;location;lat;lon;timestamp;P1;durP1;ratioP1;P2;durP2;ratioP2
59587;SDS011;45412;54.472;18.464;2022-12-10T00:01:17;36.50;;;15.30;;
59587;SDS011;45412;54.472;18.464;2022-12-10T00:04:06;28.20;;;12.40;;
59587;SDS011;45412;54.472;18.464;2022-12-10T00:06:54;34.90;;;13.50;;
59587;SDS011;45412;54.472;18.464;2022-12-10T00:09:42;34.20;;;15.40;;
59587;SDS011;45412;54.472;18.464;2022-12-10T00:12:29;39.80;;;16.00;;
59587;SDS011;45412;54.472;18.464;2022-12-10T00:15:17;32.10;;;14.20;;
59587;SDS011;45412;54.472;18.464;2022-12-10T00:18:05;37.60;;;17.00;;
59587;SDS011;45412;54.472;18.464;2022-12-10T00:20:53;39.10;;;17.70;;
59587;SDS011;45412;54.472;18.464;2022-12-10T00:23:42;32.10;;;15.00;;
59587;SDS011;45412;54.472;18.464;2022-12-10T00:26:32;37.60;;;15.50;;
59587;SDS011;45412;54.472;18.464;2022-12-10T00:29:22;20.90;;;8.40;;
59587;SDS011;45412;54.472;18.464;2022-12-10T00:32:10;12.90;;;5.40;;
59587;SDS011;45412;54.472;18.464;2022-12-10T00:34:58;11.90;;;4.80;;
59587;SDS011;45412;54.472;18.464;2022-12-10T00:37:45;13.80;;;5.50;;
59587;SDS011;45412;54.472;18.464;2022-12-10T00:40:33;16.50;;;5.80;;
59587;SDS011;45412;54.472;18.464;2022-12-10T00:43:21;18.90;;;7.70;;
59587;SDS011;45412;54.472;18.464;2022-12-10T00:46:09;20.10;;;8.50;;
59587;SDS011;45412;54.472;18.464;2022-12-10T00:48:59;24.70;;;9.90;;
59587;SDS011;45412;54.472;18.464;2022-12-10T00:51:48;24.20;;;10.00;;
59587;SDS011;45412;54.472;18.464;2022-12-10T00:54:53;26.20;;;10.40;;
59587;SDS011;45412;54.472;18.464;2022-12-10T00:57:42;20.30;;;9.40;;
59587;SDS011;45412;54.472;18.464;2022-12-10T01:00:29;20.70;;;9.00;;
59587;SDS011;45412;54.472;18.464;2022-12-10T01:03:17;21.90;;;9.00;;
59587;SDS011;45412;54.472;18.464;2022-12-10T01:06:13;22.40;;;9.20;;
59587;SDS011;45412;54.472;18.464;2022-12-10T01:09:04;20.50;;;7.90;;
59587;SDS011;45412;54.472;18.464;2022-12-10T01:11:55;23.10;;;8.20;;
59587;SDS011;45412;54.472;18.464;2022-12-10T01:14:45;19.60;;;7.00;;
59587;SDS011;45412;54.472;18.464;2022-12-10T01:17:32;17.50;;;8.10;;
59587;SDS011;45412;54.472;18.464;2022-12-10T01:20:20;18.60;;;6.90;;
59587;SDS011;45412;54.472;18.464;2022-12-10T01:23:08;21.00;;;8.80;;
59587;SDS011;45412;54.472;18.464;2022-12-10T01:25:59;20.40;;;8.50;;
59587;SDS011;45412;54.472;18.464;2022-12-10T01:28:52;22.70;;;9.00;;
59587;SDS011;45412;54.472;18.464;2022-12-10T01:31:41;19.20;;;8.80;;
59587;SDS011;45412;54.472;18.464;2022-12-10T01:34:28;22.90;;;9.20;;
59587;SDS011;45412;54.472;18.464;2022-12-10T01:37:16;16.90;;;7.80;;
59587;SDS011;45412;54.472;18.464;2022-12-10T01:40:04;20.10;;;8.60;;
59587;SDS011;45412;54.472;18.464;2022-12-10T01:42:53;17.40;;;7.30;;
59587;SDS011;45412;54.472;18.464;2022-12-10T01:45:46;15.90;;;6.60;;
59587;SDS011;45412;54.472;18.464;2022-12-10T01:48:34;17.30;;;7.60;;
59587;SDS011;45412;54.472;18.464;2022-12-10T01:51:23;19.10;;;8.00;;
59587;SDS011;45412;54.472;18.464;2022-12-10T01:54:16;17.40;;;6.90;;
59587;SDS011;45412;54.472;18.464;2022-12-10T01:57:28;20.40;;;8.40;;
59587;SDS011;45412;54.472;18.464;2022-12-10T02:00:16;25.40;;;10.10;;
59587;SDS011;45412;54.472;18.464;2022-12-10T02:03:07;27.00;;;11.60;;
59587;SDS011;45412;54.472;18.464;2022-12-10T02:06:11;27.30;;;12.30;;
59587;SDS011;45412;54.472;18.464;2022-12-10T02:12:52;30.10;;;13.20;;
59587;SDS011;45412;54.472;18.464;2022-12-10T02:15:56;28.40;;;11.80;;
59587;SDS011;45412;54.472;18.464;2022-12-10T02:18:58;25.30;;;11.20;;
59587;SDS011;45412;54.472;18.464;2022-12-10T02:21:56;18.50;;;7.80;;
59587;SDS011;45412;54.472;18.464;2022-12-10T02:24:46;20.80;;;9.60;;
59587;SDS011;45412;54.472;18.464;2022-12-10T02:28:02;20.00;;;8.00;;
59587;SDS011;45412;54.472;18.464;2022-12-10T02:30:53;20.20;;;8.20;;
59587;SDS011;45412;54.472;18.464;2022-12-10T02:33:45;22.50;;;9.90;;
59587;SDS011;45412;54.472;18.464;2022-12-10T02:36:38;22.00;;;9.90;;
59587;SDS011;45412;54.472;18.464;2022-12-10T02:39:34;20.90;;;9.70;;
59587;SDS011;45412;54.472;18.464;2022-12-10T02:42:27;24.80;;;10.20;;
59587;SDS011;45412;54.472;18.464;2022-12-10T02:45:19;19.00;;;8.70;;
59587;SDS011;45412;54.472;18.464;2022-12-10T02:48:09;17.20;;;7.60;;
59587;SDS011;45412;54.472;18.464;2022-12-10T02:51:00;21.50;;;9.30;;
59587;SDS011;45412;54.472;18.464;2022-12-10T02:53:57;19.30;;;9.10;;
59587;SDS011;45412;54.472;18.464;2022-12-10T02:56:53;17.00;;;7.50;;
59587;SDS011;45412;54.472;18.464;2022-12-10T03:06:36;18.90;;;7.90;;
59587;SDS011;45412;54.472;18.464;2022-12-10T03:09:34;20.80;;;8.30;;
59587;SDS011;45412;54.472;18.464;2022-12-10T03:12:39;20.40;;;8.30;;
59587;SDS011;45412;54.472;18.464;2022-12-10T03:15:34;23.00;;;9.40;;
59587;SDS011;45412;54.472;18.464;2022-12-10T03:18:25;21.10;;;9.20;;
59587;SDS011;45412;54.472;18.464;2022-12-10T03:21:15;18.30;;;7.50;;
59587;SDS011;45412;54.472;18.464;2022-12-10T03:24:04;16.90;;;7.20;;
59587;SDS011;45412;54.472;18.464;2022-12-10T03:26:53;17.00;;;7.40;;
59587;SDS011;45412;54.472;18.464;2022-12-10T03:29:53;16.50;;;6.80;;
59587;SDS011;45412;54.472;18.464;2022-12-10T03:32:44;19.50;;;8.20;;
59587;SDS011;45412;54.472;18.464;2022-12-10T03:35:33;27.70;;;11.40;;
59587;SDS011;45412;54.472;18.464;2022-12-10T03:38:21;26.70;;;11.70;;
59587;SDS011;45412;54.472;18.464;2022-12-10T03:41:09;20.60;;;10.60;;
59587;SDS011;45412;54.472;18.464;2022-12-10T03:43:59;21.00;;;9.80;;
59587;SDS011;45412;54.472;18.464;2022-12-10T03:46:47;19.20;;;9.20;;
59587;SDS011;45412;54.472;18.464;2022-12-10T03:49:35;22.30;;;10.10;;
59587;SDS011;45412;54.472;18.464;2022-12-10T03:52:22;33.80;;;15.50;;
59587;SDS011;45412;54.472;18.464;2022-12-10T03:55:10;22.50;;;10.70;;
59587;SDS011;45412;54.472;18.464;2022-12-10T03:57:59;22.10;;;9.90;;
59587;SDS011;45412;54.472;18.464;2022-12-10T04:00:47;19.70;;;8.10;;
59587;SDS011;45412;54.472;18.464;2022-12-10T04:03:37;18.80;;;8.60;;
59587;SDS011;45412;54.472;18.464;2022-12-10T04:06:26;18.20;;;7.80;;
59587;SDS011;45412;54.472;18.464;2022-12-10T04:09:14;16.60;;;7.10;;
59587;SDS011;45412;54.472;18.464;2022-12-10T04:12:03;19.60;;;7.50;;
59587;SDS011;45412;54.472;18.464;2022-12-10T04:14:52;19.00;;;8.20;;
59587;SDS011;45412;54.472;18.464;2022-12-10T04:17:58;20.70;;;9.40;;
59587;SDS011;45412;54.472;18.464;2022-12-10T04:20:46;22.00;;;9.10;;
59587;SDS011;45412;54.472;18.464;2022-12-10T04:23:53;20.20;;;8.40;;
59587;SDS011;45412;54.472;18.464;2022-12-10T04:27:02;20.20;;;8.40;;
59587;SDS011;45412;54.472;18.464;2022-12-10T04:29:53;20.70;;;8.40;;
59587;SDS011;45412;54.472;18.464;2022-12-10T04:32:43;16.20;;;6.80;;
59587;SDS011;45412;54.472;18.464;2022-12-10T04:35:31;16.60;;;7.70;;
59587;SDS011;45412;54.472;18.464;2022-12-10T04:38:19;20.90;;;8.80;;
59587;SDS011;45412;54.472;18.464;2022-12-10T04:41:06;16.60;;;7.30;;
59587;SDS011;45412;54.472;18.464;2022-12-10T04:44:08;16.90;;;7.40;;
59587;SDS011;45412;54.472;18.464;2022-12-10T04:46:57;18.00;;;8.10;;
59587;SDS011;45412;54.472;18.464;2022-12-10T04:49:45;19.00;;;8.80;;
59587;SDS011;45412;54.472;18.464;2022-12-10T04:52:33;20.30;;;8.60;;
59587;SDS011;45412;54.472;18.464;2022-12-10T04:55:20;21.90;;;8.80;;
59587;SDS011;45412;54.472;18.464;2022-12-10T04:58:08;21.10;;;8.40;;
59587;SDS011;45412;54.472;18.464;2022-12-10T05:01:03;18.40;;;8.80;;
59587;SDS011;45412;54.472;18.464;2022-12-10T05:03:53;19.40;;;7.70;;
59587;SDS011;45412;54.472;18.464;2022-12-10T05:06:41;18.60;;;7.00;;
59587;SDS011;45412;54.472;18.464;2022-12-10T05:09:30;17.70;;;7.10;;
59587;SDS011;45412;54.472;18.464;2022-12-10T05:12:18;16.10;;;6.70;;
59587;SDS011;45412;54.472;18.464;2022-12-10T05:15:06;19.30;;;6.90;;
59587;SDS011;45412;54.472;18.464;2022-12-10T05:17:55;20.30;;;7.80;;
59587;SDS011;45412;54.472;18.464;2022-12-10T05:20:42;20.40;;;8.60;;
59587;SDS011;45412;54.472;18.464;2022-12-10T05:23:31;20.50;;;8.50;;
59587;SDS011;45412;54.472;18.464;2022-12-10T05:26:22;17.60;;;8.00;;
59587;SDS011;45412;54.472;18.464;2022-12-10T05:29:13;18.40;;;8.40;;
59587;SDS011;45412;54.472;18.464;2022-12-10T05:32:02;16.50;;;6.80;;
59587;SDS011;45412;54.472;18.464;2022-12-10T05:34:51;17.60;;;7.50;;
59587;SDS011;45412;54.472;18.464;2022-12-10T05:37:39;17.60;;;6.60;;
59587;SDS011;45412;54.472;18.464;2022-12-10T05:40:26;16.20;;;7.10;;
59587;SDS011;45412;54.472;18.464;2022-12-10T05:43:14;15.50;;;6.70;;
59587;SDS011;45412;54.472;18.464;2022-12-10T05:46:08;17.60;;;7.40;;
59587;SDS011;45412;54.472;18.464;2022-12-10T05:48:59;20.30;;;8.80;;
59587;SDS011;45412;54.472;18.464;2022-12-10T05:51:48;17.00;;;7.30;;
59587;SDS011;45412;54.472;18.464;2022-12-10T05:54:35;19.80;;;8.00;;
59587;SDS011;45412;54.472;18.464;2022-12-10T05:57:23;19.00;;;8.00;;
59587;SDS011;45412;54.472;18.464;2022-12-10T06:00:11;20.70;;;8.30;;
59587;SDS011;45412;54.472;18.464;2022-12-10T06:02:59;13.90;;;5.80;;
59587;SDS011;45412;54.472;18.464;2022-12-10T06:05:47;19.20;;;8.20;;
59587;SDS011;45412;54.472;18.464;2022-12-10T06:08:36;17.80;;;7.30;;
59587;SDS011;45412;54.472;18.464;2022-12-10T06:11:27;17.90;;;7.40;;
59587;SDS011;45412;54.472;18.464;2022-12-10T06:14:16;14.40;;;6.10;;
59587;SDS011;45412;54.472;18.464;2022-12-10T06:17:03;16.20;;;7.00;;
59587;SDS011;45412;54.472;18.464;2022-12-10T06:19:51;20.50;;;8.30;;
59587;SDS011;45412;54.472;18.464;2022-12-10T06:22:38;20.10;;;8.80;;
59587;SDS011;45412;54.472;18.464;2022-12-10T06:25:26;17.40;;;8.50;;
59587;SDS011;45412;54.472;18.464;2022-12-10T06:28:14;17.60;;;7.50;;
59587;SDS011;45412;54.472;18.464;2022-12-10T06:31:02;15.20;;;7.20;;
59587;SDS011;45412;54.472;18.464;2022-12-10T06:33:50;15.20;;;6.90;;
59587;SDS011;45412;54.472;18.464;2022-12-10T06:36:38;18.60;;;8.40;;
59587;SDS011;45412;54.472;18.464;2022-12-10T06:39:26;18.10;;;7.40;;
59587;SDS011;45412;54.472;18.464;2022-12-10T06:42:13;18.60;;;8.10;;
59587;SDS011;45412;54.472;18.464;2022-12-10T06:45:01;21.10;;;9.50;;
59587;SDS011;45412;54.472;18.464;2022-12-10T06:47:48;20.90;;;9.80;;
59587;SDS011;45412;54.472;18.464;2022-12-10T06:50:36;20.70;;;9.10;;
59587;SDS011;45412;54.472;18.464;2022-12-10T06:53:24;17.90;;;8.70;;
59587;SDS011;45412;54.472;18.464;2022-12-10T06:56:17;18.40;;;8.60;;
59587;SDS011;45412;54.472;18.464;2022-12-10T06:59:06;19.50;;;9.50;;
59587;SDS011;45412;54.472;18.464;2022-12-10T07:01:53;20.30;;;9.20;;
59587;SDS011;45412;54.472;18.464;2022-12-10T07:04:41;17.60;;;8.30;;
59587;SDS011;45412;54.472;18.464;2022-12-10T07:07:29;18.00;;;8.20;;
59587;SDS011;45412;54.472;18.464;2022-12-10T07:10:18;19.90;;;8.10;;
59587;SDS011;45412;54.472;18.464;2022-12-10T07:13:07;22.30;;;8.10;;
59587;SDS011;45412;54.472;18.464;2022-12-10T07:15:54;27.30;;;11.30;;
59587;SDS011;45412;54.472;18.464;2022-12-10T07:18:42;22.90;;;9.90;;
59587;SDS011;45412;54.472;18.464;2022-12-10T07:21:40;21.10;;;9.20;;
59587;SDS011;45412;54.472;18.464;2022-12-10T07:24:29;22.80;;;9.50;;
59587;SDS011;45412;54.472;18.464;2022-12-10T07:27:17;26.60;;;9.70;;
59587;SDS011;45412;54.472;18.464;2022-12-10T07:30:05;29.80;;;11.00;;
59587;SDS011;45412;54.472;18.464;2022-12-10T07:32:54;24.10;;;10.90;;
59587;SDS011;45412;54.472;18.464;2022-12-10T07:35:41;21.30;;;8.70;;
59587;SDS011;45412;54.472;18.464;2022-12-10T07:38:36;18.50;;;8.30;;
59587;SDS011;45412;54.472;18.464;2022-12-10T07:41:24;21.00;;;9.60;;
59587;SDS011;45412;54.472;18.464;2022-12-10T07:44:13;23.60;;;10.20;;
59587;SDS011;45412;54.472;18.464;2022-12-10T07:47:01;22.40;;;10.40;;
59587;SDS011;45412;54.472;18.464;2022-12-10T07:49:50;23.20;;;10.20;;
59587;SDS011;45412;54.472;18.464;2022-12-10T07:52:38;25.60;;;12.50;;
59587;SDS011;45412;54.472;18.464;2022-12-10T07:55:25;19.80;;;9.40;;
59587;SDS011;45412;54.472;18.464;2022-12-10T07:58:14;21.40;;;10.60;;
59587;SDS011;45412;54.472;18.464;2022-12-10T08:01:09;19.00;;;8.10;;
59587;SDS011;45412;54.472;18.464;2022-12-10T08:03:58;19.30;;;9.00;;
59587;SDS011;45412;54.472;18.464;2022-12-10T08:06:46;17.90;;;8.40;;
59587;SDS011;45412;54.472;18.464;2022-12-10T08:09:35;20.20;;;10.00;;
59587;SDS011;45412;54.472;18.464;2022-12-10T08:12:32;24.90;;;11.40;;
59587;SDS011;45412;54.472;18.464;2022-12-10T08:15:24;27.20;;;11.60;;
59587;SDS011;45412;54.472;18.464;2022-12-10T08:18:12;19.80;;;9.20;;
59587;SDS011;45412;54.472;18.464;2022-12-10T08:21:04;23.30;;;10.10;;
59587;SDS011;45412;54.472;18.464;2022-12-10T08:23:57;23.50;;;9.50;;
59587;SDS011;45412;54.472;18.464;2022-12-10T08:26:49;19.50;;;8.60;;
59587;SDS011;45412;54.472;18.464;2022-12-10T08:29:37;22.00;;;9.40;;
59587;SDS011;45412;54.472;18.464;2022-12-10T08:32:25;28.90;;;11.70;;
59587;SDS011;45412;54.472;18.464;2022-12-10T08:35:13;23.10;;;9.10;;
59587;SDS011;45412;54.472;18.464;2022-12-10T08:38:01;28.70;;;12.70;;
59587;SDS011;45412;54.472;18.464;2022-12-10T08:40:49;27.70;;;12.70;;
59587;SDS011;45412;54.472;18.464;2022-12-10T08:43:37;24.90;;;12.80;;
59587;SDS011;45412;54.472;18.464;2022-12-10T08:46:26;26.30;;;13.00;;
59587;SDS011;45412;54.472;18.464;2022-12-10T08:49:14;23.50;;;11.60;;
59587;SDS011;45412;54.472;18.464;2022-12-10T08:52:02;25.20;;;12.20;;
59587;SDS011;45412;54.472;18.464;2022-12-10T08:54:50;27.70;;;12.90;;
59587;SDS011;45412;54.472;18.464;2022-12-10T08:57:37;23.10;;;10.00;;
59587;SDS011;45412;54.472;18.464;2022-12-10T09:00:25;23.50;;;10.60;;
59587;SDS011;45412;54.472;18.464;2022-12-10T09:03:13;27.80;;;12.30;;
59587;SDS011;45412;54.472;18.464;2022-12-10T09:06:06;34.90;;;15.80;;
59587;SDS011;45412;54.472;18.464;2022-12-10T09:08:57;31.20;;;15.20;;
59587;SDS011;45412;54.472;18.464;2022-12-10T09:11:44;33.40;;;15.00;;
59587;SDS011;45412;54.472;18.464;2022-12-10T09:14:33;30.20;;;12.10;;
59587;SDS011;45412;54.472;18.464;2022-12-10T09:17:22;24.80;;;11.90;;
59587;SDS011;45412;54.472;18.464;2022-12-10T09:20:26;21.40;;;9.30;;
59587;SDS011;45412;54.472;18.464;2022-12-10T09:23:20;22.60;;;10.80;;
59587;SDS011;45412;54.472;18.464;2022-12-10T09:26:10;20.30;;;9.70;;
59587;SDS011;45412;54.472;18.464;2022-12-10T09:29:00;21.90;;;11.40;;
59587;SDS011;45412;54.472;18.464;2022-12-10T09:31:51;29.20;;;13.70;;
59587;SDS011;45412;54.472;18.464;2022-12-10T09:34:40;33.90;;;16.40;;
59587;SDS011;45412;54.472;18.464;2022-12-10T09:37:28;32.70;;;14.60;;
59587;SDS011;45412;54.472;18.464;2022-12-10T09:40:23;32.70;;;15.60;;
59587;SDS011;45412;54.472;18.464;2022-12-10T09:43:23;34.90;;;16.00;;
59587;SDS011;45412;54.472;18.464;2022-12-10T09:46:36;33.90;;;16.00;;
59587;SDS011;45412;54.472;18.464;2022-12-10T09:53:00;33.60;;;15.00;;
59587;SDS011;45412;54.472;18.464;2022-12-10T09:55:49;35.30;;;16.00;;
59587;SDS011;45412;54.472;18.464;2022-12-10T09:58:38;35.30;;;14.50;;
59587;SDS011;45412;54.472;18.464;2022-12-10T10:01:27;36.30;;;16.80;;
59587;SDS011;45412;54.472;18.464;2022-12-10T10:04:20;39.70;;;18.30;;
59587;SDS011;45412;54.472;18.464;2022-12-10T10:07:17;42.70;;;18.60;;
59587;SDS011;45412;54.472;18.464;2022-12-10T10:10:29;46.50;;;18.40;;
59587;SDS011;45412;54.472;18.464;2022-12-10T10:16:28;37.90;;;16.60;;
59587;SDS011;45412;54.472;18.464;2022-12-10T10:19:26;35.50;;;16.30;;
59587;SDS011;45412;54.472;18.464;2022-12-10T10:22:25;37.20;;;16.60;;
59587;SDS011;45412;54.472;18.464;2022-12-10T10:25:16;33.20;;;14.80;;
59587;SDS011;45412;54.472;18.464;2022-12-10T10:28:18;31.00;;;14.90;;
59587;SDS011;45412;54.472;18.464;2022-12-10T10:31:26;35.10;;;15.40;;
59587;SDS011;45412;54.472;18.464;2022-12-10T10:34:20;35.30;;;16.60;;
59587;SDS011;45412;54.472;18.464;2022-12-10T10:37:25;30.50;;;15.50;;
59587;SDS011;45412;54.472;18.464;2022-12-10T10:43:34;29.50;;;13.90;;
59587;SDS011;45412;54.472;18.464;2022-12-10T10:46:28;25.30;;;12.00;;
59587;SDS011;45412;54.472;18.464;2022-12-10T10:49:33;28.50;;;12.90;;
59587;SDS011;45412;54.472;18.464;2022-12-10T10:52:39;24.90;;;12.20;;
59587;SDS011;45412;54.472;18.464;2022-12-10T10:55:39;24.00;;;12.30;;
59587;SDS011;45412;54.472;18.464;2022-12-10T10:58:52;25.20;;;12.20;;
59587;SDS011;45412;54.472;18.464;2022-12-10T11:01:55;25.90;;;11.70;;
59587;SDS011;45412;54.472;18.464;2022-12-10T11:05:25;24.70;;;10.70;;
59587;SDS011;45412;54.472;18.464;2022-12-10T11:08:29;22.10;;;10.10;;
59587;SDS011;45412;54.472;18.464;2022-12-10T11:11:20;22.20;;;11.00;;
59587;SDS011;45412;54.472;18.464;2022-12-10T11:14:33;21.40;;;10.40;;
59587;SDS011;45412;54.472;18.464;2022-12-10T11:17:40;23.00;;;11.30;;
59587;SDS011;45412;54.472;18.464;2022-12-10T11:21:16;19.70;;;10.40;;
59587;SDS011;45412;54.472;18.464;2022-12-10T11:24:19;21.30;;;11.40;;
59587;SDS011;45412;54.472;18.464;2022-12-10T11:27:18;19.20;;;10.30;;
59587;SDS011;45412;54.472;18.464;2022-12-10T11:30:23;21.10;;;11.30;;
59587;SDS011;45412;54.472;18.464;2022-12-10T11:34:02;22.10;;;12.00;;
59587;SDS011;45412;54.472;18.464;2022-12-10T11:37:02;21.60;;;12.50;;
59587;SDS011;45412;54.472;18.464;2022-12-10T11:39:58;19.50;;;11.30;;
59587;SDS011;45412;54.472;18.464;2022-12-10T11:46:41;19.30;;;11.30;;
59587;SDS011;45412;54.472;18.464;2022-12-10T11:49:44;23.30;;;11.90;;
59587;SDS011;45412;54.472;18.464;2022-12-10T12:02:58;19.50;;;9.80;;
59587;SDS011;45412;54.472;18.464;2022-12-10T12:13:02;21.40;;;11.40;;
59587;SDS011;45412;54.472;18.464;2022-12-10T12:16:09;18.80;;;10.30;;
59587;SDS011;45412;54.472;18.464;2022-12-10T12:19:28;20.60;;;10.50;;
59587;SDS011;45412;54.472;18.464;2022-12-10T12:22:27;23.10;;;11.00;;
59587;SDS011;45412;54.472;18.464;2022-12-10T12:25:38;24.90;;;11.30;;
59587;SDS011;45412;54.472;18.464;2022-12-10T12:28:36;23.10;;;11.20;;
59587;SDS011;45412;54.472;18.464;2022-12-10T12:31:34;19.40;;;10.30;;
59587;SDS011;45412;54.472;18.464;2022-12-10T12:34:28;26.40;;;13.00;;
59587;SDS011;45412;54.472;18.464;2022-12-10T12:38:03;20.90;;;10.60;;
59587;SDS011;45412;54.472;18.464;2022-12-10T12:50:43;25.00;;;11.50;;
59587;SDS011;45412;54.472;18.464;2022-12-10T12:53:34;26.10;;;11.50;;
59587;SDS011;45412;54.472;18.464;2022-12-10T13:00:01;29.20;;;13.70;;
59587;SDS011;45412;54.472;18.464;2022-12-10T13:05:51;31.10;;;13.40;;
59587;SDS011;45412;54.472;18.464;2022-12-10T13:09:16;26.00;;;13.30;;
59587;SDS011;45412;54.472;18.464;2022-12-10T13:18:35;29.80;;;14.50;;
59587;SDS011;45412;54.472;18.464;2022-12-10T13:21:30;25.00;;;12.20;;
59587;SDS011;45412;54.472;18.464;2022-12-10T13:27:57;32.20;;;13.50;;
59587;SDS011;45412;54.472;18.464;2022-12-10T13:34:18;37.70;;;16.70;;
59587;SDS011;45412;54.472;18.464;2022-12-10T13:40:15;31.90;;;16.00;;
59587;SDS011;45412;54.472;18.464;2022-12-10T13:43:53;31.30;;;14.90;;
59587;SDS011;45412;54.472;18.464;2022-12-10T13:50:00;33.00;;;14.30;;
59587;SDS011;45412;54.472;18.464;2022-12-10T13:53:12;31.90;;;13.60;;
59587;SDS011;45412;54.472;18.464;2022-12-10T14:05:49;28.90;;;13.60;;
59587;SDS011;45412;54.472;18.464;2022-12-10T14:09:00;31.50;;;14.10;;
59587;SDS011;45412;54.472;18.464;2022-12-10T14:11:56;33.90;;;13.80;;
59587;SDS011;45412;54.472;18.464;2022-12-10T14:15:00;32.10;;;14.60;;
59587;SDS011;45412;54.472;18.464;2022-12-10T14:18:09;37.60;;;15.80;;
59587;SDS011;45412;54.472;18.464;2022-12-10T14:21:03;43.30;;;18.20;;
59587;SDS011;45412;54.472;18.464;2022-12-10T14:23:53;41.40;;;18.00;;
59587;SDS011;45412;54.472;18.464;2022-12-10T14:26:43;42.80;;;19.40;;
59587;SDS011;45412;54.472;18.464;2022-12-10T14:29:30;47.30;;;19.60;;
59587;SDS011;45412;54.472;18.464;2022-12-10T14:32:35;54.20;;;22.60;;
59587;SDS011;45412;54.472;18.464;2022-12-10T14:35:26;55.00;;;22.20;;
59587;SDS011;45412;54.472;18.464;2022-12-10T14:38:19;49.60;;;20.80;;
59587;SDS011;45412;54.472;18.464;2022-12-10T14:41:18;41.10;;;18.70;;
59587;SDS011;45412;54.472;18.464;2022-12-10T14:44:09;47.10;;;20.00;;
59587;SDS011;45412;54.472;18.464;2022-12-10T14:47:15;46.50;;;18.60;;
59587;SDS011;45412;54.472;18.464;2022-12-10T14:50:10;48.50;;;20.10;;
59587;SDS011;45412;54.472;18.464;2022-12-10T14:53:04;51.10;;;22.20;;
59587;SDS011;45412;54.472;18.464;2022-12-10T14:56:04;48.60;;;21.50;;
59587;SDS011;45412;54.472;18.464;2022-12-10T14:59:05;48.70;;;19.90;;
59587;SDS011;45412;54.472;18.464;2022-12-10T15:02:01;54.60;;;22.10;;
59587;SDS011;45412;54.472;18.464;2022-12-10T15:05:01;54.20;;;22.30;;
59587;SDS011;45412;54.472;18.464;2022-12-10T15:07:55;52.90;;;21.10;;
59587;SDS011;45412;54.472;18.464;2022-12-10T15:10:46;56.10;;;22.70;;
59587;SDS011;45412;54.472;18.464;2022-12-10T15:13:40;50.70;;;21.10;;
59587;SDS011;45412;54.472;18.464;2022-12-10T15:16:41;49.10;;;22.10;;
59587;SDS011;45412;54.472;18.464;2022-12-10T15:19:32;61.20;;;27.00;;
59587;SDS011;45412;54.472;18.464;2022-12-10T15:22:29;57.70;;;25.90;;
59587;SDS011;45412;54.472;18.464;2022-12-10T15:25:28;54.90;;;24.20;;
59587;SDS011;45412;54.472;18.464;2022-12-10T15:28:28;59.00;;;23.30;;
59587;SDS011;45412;54.472;18.464;2022-12-10T15:34:16;53.80;;;22.40;;
59587;SDS011;45412;54.472;18.464;2022-12-10T15:37:05;55.60;;;23.50;;
59587;SDS011;45412;54.472;18.464;2022-12-10T15:39:55;44.70;;;17.50;;
59587;SDS011;45412;54.472;18.464;2022-12-10T15:42:45;59.30;;;22.60;;
59587;SDS011;45412;54.472;18.464;2022-12-10T15:45:41;53.50;;;21.50;;
59587;SDS011;45412;54.472;18.464;2022-12-10T15:48:30;53.30;;;23.50;;
59587;SDS011;45412;54.472;18.464;2022-12-10T15:51:18;59.90;;;25.50;;
59587;SDS011;45412;54.472;18.464;2022-12-10T16:00:24;71.60;;;27.00;;
59587;SDS011;45412;54.472;18.464;2022-12-10T16:03:16;64.40;;;24.50;;
59587;SDS011;45412;54.472;18.464;2022-12-10T16:06:05;54.40;;;23.20;;
59587;SDS011;45412;54.472;18.464;2022-12-10T16:08:53;55.40;;;23.00;;
59587;SDS011;45412;54.472;18.464;2022-12-10T16:11:41;52.00;;;22.00;;
59587;SDS011;45412;54.472;18.464;2022-12-10T16:14:29;55.50;;;21.90;;
59587;SDS011;45412;54.472;18.464;2022-12-10T16:17:17;56.60;;;23.60;;
59587;SDS011;45412;54.472;18.464;2022-12-10T16:20:26;47.00;;;18.50;;
59587;SDS011;45412;54.472;18.464;2022-12-10T16:23:16;59.20;;;24.90;;
59587;SDS011;45412;54.472;18.464;2022-12-10T16:26:15;57.40;;;25.10;;
59587;SDS011;45412;54.472;18.464;2022-12-10T16:29:03;52.10;;;23.90;;
59587;SDS011;45412;54.472;18.464;2022-12-10T16:31:51;51.90;;;22.50;;
59587;SDS011;45412;54.472;18.464;2022-12-10T16:34:39;46.60;;;18.80;;
59587;SDS011;45412;54.472;18.464;2022-12-10T16:37:27;41.70;;;16.20;;
59587;SDS011;45412;54.472;18.464;2022-12-10T16:40:16;52.90;;;19.20;;
59587;SDS011;45412;54.472;18.464;2022-12-10T16:43:05;59.60;;;20.60;;
59587;SDS011;45412;54.472;18.464;2022-12-10T16:45:54;54.20;;;21.30;;
59587;SDS011;45412;54.472;18.464;2022-12-10T16:48:43;52.40;;;20.20;;
59587;SDS011;45412;54.472;18.464;2022-12-10T16:51:30;60.50;;;21.70;;
59587;SDS011;45412;54.472;18.464;2022-12-10T16:54:19;58.30;;;23.20;;
59587;SDS011;45412;54.472;18.464;2022-12-10T16:57:14;64.30;;;26.00;;
59587;SDS011;45412;54.472;18.464;2022-12-10T17:00:03;62.10;;;27.90;;
59587;SDS011;45412;54.472;18.464;2022-12-10T17:02:51;60.20;;;26.10;;
59587;SDS011;45412;54.472;18.464;2022-12-10T17:05:39;49.20;;;22.70;;
59587;SDS011;45412;54.472;18.464;2022-12-10T17:08:30;49.40;;;22.50;;
59587;SDS011;45412;54.472;18.464;2022-12-10T17:11:30;53.70;;;21.90;;
59587;SDS011;45412;54.472;18.464;2022-12-10T17:14:41;47.60;;;21.10;;
59587;SDS011;45412;54.472;18.464;2022-12-10T17:17:34;41.50;;;18.10;;
59587;SDS011;45412;54.472;18.464;2022-12-10T17:20:22;36.60;;;16.70;;
59587;SDS011;45412;54.472;18.464;2022-12-10T17:23:12;36.20;;;15.60;;
59587;SDS011;45412;54.472;18.464;2022-12-10T17:26:00;36.20;;;15.60;;
59587;SDS011;45412;54.472;18.464;2022-12-10T17:28:49;38.10;;;15.40;;
59587;SDS011;45412;54.472;18.464;2022-12-10T17:31:37;36.80;;;16.70;;
59587;SDS011;45412;54.472;18.464;2022-12-10T17:34:26;43.20;;;19.00;;
59587;SDS011;45412;54.472;18.464;2022-12-10T17:37:16;40.60;;;19.00;;
59587;SDS011;45412;54.472;18.464;2022-12-10T17:40:14;39.80;;;17.50;;
59587;SDS011;45412;54.472;18.464;2022-12-10T17:43:06;41.00;;;16.80;;
59587;SDS011;45412;54.472;18.464;2022-12-10T17:45:56;37.80;;;16.40;;
59587;SDS011;45412;54.472;18.464;2022-12-10T17:48:45;34.40;;;13.50;;
59587;SDS011;45412;54.472;18.464;2022-12-10T17:51:33;27.30;;;9.20;;
59587;SDS011;45412;54.472;18.464;2022-12-10T17:54:21;34.60;;;14.40;;
59587;SDS011;45412;54.472;18.464;2022-12-10T17:57:21;36.00;;;14.10;;
59587;SDS011;45412;54.472;18.464;2022-12-10T18:00:12;39.30;;;15.60;;
59587;SDS011;45412;54.472;18.464;2022-12-10T18:03:08;37.40;;;16.30;;
59587;SDS011;45412;54.472;18.464;2022-12-10T18:05:55;34.10;;;13.10;;
59587;SDS011;45412;54.472;18.464;2022-12-10T18:08:44;50.80;;;20.20;;
59587;SDS011;45412;54.472;18.464;2022-12-10T18:11:33;51.10;;;22.20;;
59587;SDS011;45412;54.472;18.464;2022-12-10T18:14:21;45.20;;;19.00;;
59587;SDS011;45412;54.472;18.464;2022-12-10T18:17:13;47.30;;;19.20;;
59587;SDS011;45412;54.472;18.464;2022-12-10T18:20:01;46.20;;;18.20;;